Time;durP1;ratioP1;P1;durP2;ratioP2;P2;SDS_P1;SDS_P2;PMS_P1;PMS_P2;Temp;Humidity;BMP_temperature;BMP_pressure;BME280_temperature;BME280_humidity;BME280_pressure;Samples;Min_cycle;Max_cycle;Signal;HPM_P1;HPM_P2
2021/06/20 00:01:06;;;;;;;13.57;7.50;;;;;;;;;;5112561;28;20506;-68
2021/06/20 00:03:33;;;;;;;11.55;7.28;;;;;;;;;;5112225;28;20403;-69
2021/06/20 00:06:05;;;;;;;9.48;6.35;;;;;;;;;;5103770;28;20075;-68
2021/06/20 00:08:31;;;;;;;10.73;7.60;;;;;;;;;;5092243;28;20117;-68
2021/06/20 00:10:58;;;;;;;12.27;7.68;;;;;;;;;;5092091;28;20072;-68
2021/06/20 00:13:25;;;;;;;12.45;6.60;;;;;;;;;;5091790;28;20071;-68
2021/06/20 00:15:51;;;;;;;10.70;6.75;;;;;;;;;;5092589;28;20079;-68
2021/06/20 00:18:18;;;;;;;10.65;7.45;;;;;;;;;;5091775;28;20048;-69
2021/06/20 00:20:46;;;;;;;8.80;6.93;;;;;;;;;;5091906;28;20086;-68
2021/06/20 00:23:13;;;;;;;12.27;6.75;;;;;;;;;;5091583;28;20533;-68
2021/06/20 00:25:40;;;;;;;8.57;6.82;;;;;;;;;;5091729;28;20143;-69
2021/06/20 00:28:07;;;;;;;10.60;6.60;;;;;;;;;;5091690;28;20131;-68
2021/06/20 00:30:36;;;;;;;9.23;7.00;;;;;;;;;;5091889;28;20402;-69
2021/06/20 00:33:02;;;;;;;7.05;6.32;;;;;;;;;;5091795;28;20490;-68
2021/06/20 00:35:29;;;;;;;8.20;6.60;;;;;;;;;;5091914;28;20072;-68
2021/06/20 00:37:56;;;;;;;7.60;6.38;;;;;;;;;;5091479;28;20303;-68
2021/06/20 00:40:22;;;;;;;8.57;6.90;;;;;;;;;;5091927;28;20082;-69
2021/06/20 00:42:49;;;;;;;7.72;6.30;;;;;;;;;;5091431;28;20168;-68
2021/06/20 00:45:18;;;;;;;8.75;7.18;;;;;;;;;;5093579;28;20141;-68
2021/06/20 00:47:45;;;;;;;8.70;7.22;;;;;;;;;;5111868;28;20048;-68
2021/06/20 00:50:13;;;;;;;10.27;7.20;;;;;;;;;;5112031;28;20113;-68
2021/06/20 00:52:40;;;;;;;8.55;7.38;;;;;;;;;;5111781;28;20101;-68
2021/06/20 00:55:07;;;;;;;9.10;6.80;;;;;;;;;;5096387;28;20083;-68
2021/06/20 00:57:34;;;;;;;10.30;7.13;;;;;;;;;;5089497;28;20083;-68
2021/06/20 01:00:03;;;;;;;7.85;6.40;;;;;;;;;;5091741;28;20078;-69
2021/06/20 01:02:30;;;;;;;7.75;6.97;;;;;;;;;;5095504;28;20086;-68
2021/06/20 01:04:57;;;;;;;10.15;6.85;;;;;;;;;;5108239;28;20092;-68
2021/06/20 01:07:24;;;;;;;10.50;6.53;;;;;;;;;;5115724;27;20044;-68
2021/06/20 01:09:51;;;;;;;8.20;6.95;;;;;;;;;;5115737;28;20429;-67
2021/06/20 01:12:18;;;;;;;10.32;6.82;;;;;;;;;;5115564;28;20482;-67
2021/06/20 01:14:46;;;;;;;9.55;6.65;;;;;;;;;;5115373;28;20043;-68
2021/06/20 01:17:13;;;;;;;8.90;6.50;;;;;;;;;;5115905;28;20051;-68
2021/06/20 01:19:40;;;;;;;10.82;6.93;;;;;;;;;;5115493;28;20058;-69
2021/06/20 01:22:23;;;;;;;14.95;7.28;;;;;;;;;;5114341;28;20509;-69
2021/06/20 01:24:53;;;;;;;;;;;;;;;;;;5106910;28;20083;-69
2021/06/20 01:27:37;;;;;;;12.82;7.18;;;;;;;;;;5095073;28;20386;-68
2021/06/20 01:30:05;;;;;;;13.07;7.15;;;;;;;;;;5095156;28;20079;-68
2021/06/20 01:32:32;;;;;;;12.52;7.32;;;;;;;;;;5094699;28;20051;-69
2021/06/20 01:34:59;;;;;;;16.48;6.88;;;;;;;;;;5094193;28;20084;-68
2021/06/20 01:37:25;;;;;;;22.00;7.13;;;;;;;;;;5095184;28;20060;-69
2021/06/20 01:39:52;;;;;;;21.90;7.60;;;;;;;;;;5094839;28;20072;-68
2021/06/20 01:42:19;;;;;;;22.70;7.13;;;;;;;;;;5094660;28;20094;-68
2021/06/20 01:44:47;;;;;;;21.45;6.97;;;;;;;;;;5094651;28;20147;-69
2021/06/20 01:47:14;;;;;;;22.42;6.72;;;;;;;;;;5094645;28;20138;-70
2021/06/20 01:49:41;;;;;;;27.55;7.45;;;;;;;;;;5110922;28;20043;-68
2021/06/20 01:52:08;;;;;;;30.52;7.55;;;;;;;;;;5114925;28;20072;-69
2021/06/20 01:54:36;;;;;;;26.02;7.32;;;;;;;;;;5114952;28;20079;-68
2021/06/20 01:57:04;;;;;;;31.67;8.05;;;;;;;;;;5114811;28;20075;-69
2021/06/20 01:59:31;;;;;;;25.50;6.57;;;;;;;;;;5114851;28;20071;-70
2021/06/20 02:01:57;;;;;;;33.42;6.63;;;;;;;;;;5096763;28;20090;-68
2021/06/20 02:04:24;;;;;;;27.77;6.78;;;;;;;;;;5094312;28;20135;-68
2021/06/20 02:06:50;;;;;;;23.50;6.22;;;;;;;;;;5094221;28;20083;-69
2021/06/20 02:09:17;;;;;;;27.75;6.78;;;;;;;;;;5094701;28;20075;-69
2021/06/20 02:11:43;;;;;;;24.30;6.55;;;;;;;;;;5092959;28;20177;-69
2021/06/20 02:14:14;;;;;;;34.90;7.60;;;;;;;;;;5094069;28;20686;-68
2021/06/20 02:16:41;;;;;;;32.65;6.75;;;;;;;;;;5093986;28;20048;-68
2021/06/20 02:19:07;;;;;;;26.83;7.28;;;;;;;;;;5092980;28;20043;-68
2021/06/20 02:21:34;;;;;;;36.88;7.35;;;;;;;;;;5094145;28;20071;-69
2021/06/20 02:24:00;;;;;;;32.67;7.88;;;;;;;;;;5093911;28;20474;-70
2021/06/20 02:26:27;;;;;;;37.95;7.43;;;;;;;;;;5102376;28;20566;-69
2021/06/20 02:28:54;;;;;;;31.30;7.00;;;;;;;;;;5093920;28;20076;-69
2021/06/20 02:31:20;;;;;;;32.25;6.78;;;;;;;;;;5093842;28;20083;-69
2021/06/20 02:33:47;;;;;;;37.08;7.05;;;;;;;;;;5093494;28;20517;-69
2021/06/20 02:36:13;;;;;;;33.05;7.13;;;;;;;;;;5093031;28;20545;-69
2021/06/20 02:38:40;;;;;;;30.15;6.63;;;;;;;;;;5102283;28;20048;-69
2021/06/20 02:41:07;;;;;;;24.73;7.07;;;;;;;;;;5093609;28;20529;-70
2021/06/20 02:43:33;;;;;;;32.25;7.15;;;;;;;;;;5093327;28;20154;-69
2021/06/20 02:46:00;;;;;;;28.88;7.38;;;;;;;;;;5093636;28;20087;-69
2021/06/20 02:48:26;;;;;;;27.38;6.68;;;;;;;;;;5095937;28;20066;-69
2021/06/20 02:50:53;;;;;;;24.58;6.95;;;;;;;;;;5113839;28;20094;-70
2021/06/20 02:53:19;;;;;;;27.00;7.35;;;;;;;;;;5113601;28;20071;-70
2021/06/20 02:55:46;;;;;;;22.48;7.25;;;;;;;;;;5113825;28;20482;-69
2021/06/20 02:58:12;;;;;;;22.70;6.90;;;;;;;;;;5113441;28;20087;-69
2021/06/20 03:00:39;;;;;;;30.15;7.65;;;;;;;;;;5113673;28;20097;-69
2021/06/20 03:03:05;;;;;;;28.02;7.53;;;;;;;;;;5113576;28;20098;-69
2021/06/20 03:05:32;;;;;;;23.98;6.93;;;;;;;;;;5113503;28;20089;-69
2021/06/20 03:07:58;;;;;;;25.98;9.05;;;;;;;;;;5113612;28;20082;-69
2021/06/20 03:10:25;;;;;;;25.00;7.35;;;;;;;;;;5113452;28;20071;-69
2021/06/20 03:12:51;;;;;;;29.02;7.35;;;;;;;;;;5109628;28;20506;-70
2021/06/20 03:15:18;;;;;;;37.17;7.63;;;;;;;;;;5093280;28;20079;-69
2021/06/20 03:17:45;;;;;;;28.25;7.80;;;;;;;;;;5092964;28;20136;-69
2021/06/20 03:20:12;;;;;;;22.38;6.90;;;;;;;;;;5092859;28;20091;-70
2021/06/20 03:22:39;;;;;;;33.08;8.38;;;;;;;;;;5092752;28;20455;-68
2021/06/20 03:25:06;;;;;;;22.33;7.57;;;;;;;;;;5092710;28;20508;-69
2021/06/20 03:27:33;;;;;;;30.85;9.00;;;;;;;;;;5092759;28;20094;-70
2021/06/20 03:29:59;;;;;;;24.42;7.47;;;;;;;;;;5092655;28;20097;-69
2021/06/20 03:32:26;;;;;;;29.83;8.65;;;;;;;;;;5092655;28;20052;-71
2021/06/20 03:34:52;;;;;;;25.60;7.35;;;;;;;;;;5091298;28;20280;-69
2021/06/20 03:37:19;;;;;;;20.27;6.60;;;;;;;;;;5092671;28;20048;-69
2021/06/20 03:39:46;;;;;;;22.50;6.97;;;;;;;;;;5107738;28;20039;-69
2021/06/20 03:42:12;;;;;;;17.42;7.13;;;;;;;;;;5092728;28;20068;-70
2021/06/20 03:44:41;;;;;;;16.67;8.00;;;;;;;;;;5092457;28;20072;-70
2021/06/20 03:47:08;;;;;;;23.05;7.95;;;;;;;;;;5092314;28;20565;-69
2021/06/20 03:49:35;;;;;;;25.13;6.65;;;;;;;;;;5092338;28;20044;-69
2021/06/20 03:52:02;;;;;;;22.95;7.65;;;;;;;;;;5090920;28;20419;-69
2021/06/20 03:54:29;;;;;;;18.33;6.65;;;;;;;;;;5092417;28;20103;-69
2021/06/20 03:56:55;;;;;;;24.85;6.82;;;;;;;;;;5092156;28;20047;-69
2021/06/20 03:59:23;;;;;;;15.13;6.82;;;;;;;;;;5092281;28;20552;-69
2021/06/20 04:01:50;;;;;;;23.70;7.10;;;;;;;;;;5091872;28;20055;-69
2021/06/20 04:04:19;;;;;;;29.55;8.40;;;;;;;;;;5092318;28;20059;-70
2021/06/20 04:06:45;;;;;;;25.60;7.80;;;;;;;;;;5091996;28;20052;-70
2021/06/20 04:09:12;;;;;;;19.90;7.43;;;;;;;;;;5092229;28;20075;-69
2021/06/20 04:11:39;;;;;;;21.65;7.00;;;;;;;;;;5091383;28;20071;-69
2021/06/20 04:14:05;;;;;;;22.50;6.93;;;;;;;;;;5090957;28;20047;-69
2021/06/20 04:16:32;;;;;;;17.60;6.70;;;;;;;;;;5091876;28;20072;-69
2021/06/20 04:19:00;;;;;;;18.63;6.85;;;;;;;;;;5091933;28;20117;-69
2021/06/20 04:21:26;;;;;;;18.45;6.95;;;;;;;;;;5092149;28;20403;-69
2021/06/20 04:23:53;;;;;;;23.45;6.88;;;;;;;;;;5091590;28;20418;-69
2021/06/20 04:26:20;;;;;;;24.52;7.70;;;;;;;;;;5091845;28;20475;-70
2021/06/20 04:28:46;;;;;;;18.27;6.90;;;;;;;;;;5091748;28;20067;-69
2021/06/20 04:31:13;;;;;;;25.00;7.93;;;;;;;;;;5092054;28;20079;-70
2021/06/20 04:33:39;;;;;;;18.88;7.07;;;;;;;;;;5091396;28;20494;-71
2021/06/20 04:36:06;;;;;;;21.02;7.05;;;;;;;;;;5090507;28;20387;-70
2021/06/20 04:38:33;;;;;;;16.95;6.80;;;;;;;;;;5090258;28;20040;-69
2021/06/20 04:41:03;;;;;;;22.38;7.72;;;;;;;;;;5091850;28;20087;-69
2021/06/20 04:43:45;;;;;;;19.80;7.20;;;;;;;;;;5091543;28;20475;-70
2021/06/20 04:46:29;;;;;;;20.27;6.55;;;;;;;;;;5092628;28;20056;-70
2021/06/20 04:49:01;;;;;;;17.33;7.07;;;;;;;;;;5091547;28;20059;-70
2021/06/20 04:51:29;;;;;;;19.30;7.53;;;;;;;;;;5092019;28;20079;-69
2021/06/20 04:53:57;;;;;;;20.25;7.68;;;;;;;;;;5091572;28;20048;-69
2021/06/20 04:56:24;;;;;;;23.58;6.95;;;;;;;;;;5091833;28;20058;-69
2021/06/20 04:58:51;;;;;;;20.05;7.20;;;;;;;;;;5091488;28;20048;-69
2021/06/20 05:01:18;;;;;;;26.75;7.30;;;;;;;;;;5091792;28;20082;-69
2021/06/20 05:03:44;;;;;;;25.98;7.22;;;;;;;;;;5095423;28;20164;-70
2021/06/20 05:06:11;;;;;;;19.00;7.15;;;;;;;;;;5110954;28;20095;-69
2021/06/20 05:08:37;;;;;;;21.15;6.82;;;;;;;;;;5111816;28;20055;-69
2021/06/20 05:11:04;;;;;;;23.98;7.10;;;;;;;;;;5111919;28;20051;-69
2021/06/20 05:13:31;;;;;;;16.58;6.18;;;;;;;;;;5111385;28;20044;-69
2021/06/20 05:15:57;;;;;;;28.30;7.80;;;;;;;;;;5111927;28;20102;-69
2021/06/20 05:18:24;;;;;;;18.35;7.00;;;;;;;;;;5111529;28;20062;-69
2021/06/20 05:20:51;;;;;;;20.67;7.32;;;;;;;;;;5111730;28;20101;-70
2021/06/20 05:23:19;;;;;;;25.15;7.13;;;;;;;;;;5111609;28;20051;-69
2021/06/20 05:25:45;;;;;;;17.05;6.70;;;;;;;;;;5111585;28;20509;-69
2021/06/20 05:28:12;;;;;;;24.95;6.43;;;;;;;;;;5093679;28;20637;-69
2021/06/20 05:30:39;;;;;;;25.60;7.68;;;;;;;;;;5111405;28;20094;-69
2021/06/20 05:33:06;;;;;;;20.67;6.95;;;;;;;;;;5110426;28;20075;-69
2021/06/20 05:35:32;;;;;;;20.75;7.10;;;;;;;;;;5108526;28;20104;-68
2021/06/20 05:38:00;;;;;;;23.77;6.93;;;;;;;;;;5090592;28;20549;-71
2021/06/20 05:40:27;;;;;;;21.63;6.75;;;;;;;;;;5029583;28;33942;-69
2021/06/20 05:42:53;;;;;;;23.02;7.90;;;;;;;;;;5038772;28;20094;-71
2021/06/20 05:45:20;;;;;;;24.70;7.20;;;;;;;;;;5090991;28;20482;-69
2021/06/20 05:47:47;;;;;;;23.70;8.07;;;;;;;;;;5094413;28;20052;-69
2021/06/20 05:50:14;;;;;;;27.45;8.60;;;;;;;;;;5094132;28;20563;-69
2021/06/20 05:52:41;;;;;;;26.42;8.32;;;;;;;;;;5094072;28;20097;-69
2021/06/20 05:55:08;;;;;;;27.10;6.82;;;;;;;;;;5088431;28;20040;-69
2021/06/20 05:57:35;;;;;;;21.48;7.88;;;;;;;;;;5094104;28;20105;-69
2021/06/20 06:00:03;;;;;;;21.20;7.95;;;;;;;;;;5093095;28;20135;-69
2021/06/20 06:02:30;;;;;;;27.23;7.20;;;;;;;;;;5094301;28;20510;-70
2021/06/20 06:04:56;;;;;;;21.00;7.45;;;;;;;;;;5094386;28;20048;-69
2021/06/20 06:07:23;;;;;;;18.63;7.25;;;;;;;;;;5094306;28;20091;-69
2021/06/20 06:09:49;;;;;;;22.42;6.90;;;;;;;;;;5094119;28;20052;-69
2021/06/20 06:12:19;;;;;;;20.02;7.13;;;;;;;;;;5094280;28;20097;-70
2021/06/20 06:14:46;;;;;;;21.25;7.68;;;;;;;;;;5093894;28;20086;-69
2021/06/20 06:17:12;;;;;;;20.65;7.45;;;;;;;;;;5093850;28;20086;-69
2021/06/20 06:19:39;;;;;;;21.65;6.25;;;;;;;;;;5093897;28;20491;-69
2021/06/20 06:22:05;;;;;;;17.35;6.60;;;;;;;;;;5093910;28;20094;-70
2021/06/20 06:24:32;;;;;;;20.70;7.00;;;;;;;;;;5094015;28;20430;-69
2021/06/20 06:26:58;;;;;;;21.50;7.13;;;;;;;;;;5093558;28;20044;-71
2021/06/20 06:29:25;;;;;;;27.25;7.00;;;;;;;;;;5094091;28;20071;-69
2021/06/20 06:31:51;;;;;;;19.50;7.50;;;;;;;;;;5093688;28;20530;-69
2021/06/20 06:34:20;;;;;;;20.90;6.95;;;;;;;;;;5092773;28;20044;-68
2021/06/20 06:36:46;;;;;;;22.55;6.75;;;;;;;;;;5093167;28;20080;-69
2021/06/20 06:39:13;;;;;;;21.73;7.00;;;;;;;;;;5092472;28;20083;-69
2021/06/20 06:41:40;;;;;;;19.60;6.50;;;;;;;;;;5093583;28;20082;-69
2021/06/20 06:44:06;;;;;;;19.55;6.20;;;;;;;;;;5092507;28;20075;-69
2021/06/20 06:46:33;;;;;;;16.30;6.35;;;;;;;;;;5093593;28;20146;-68
2021/06/20 06:48:59;;;;;;;18.85;5.70;;;;;;;;;;5093384;28;20054;-69
2021/06/20 06:51:26;;;;;;;19.25;4.60;;;;;;;;;;5093648;28;20079;-68
2021/06/20 06:53:52;;;;;;;15.63;4.57;;;;;;;;;;5093072;28;20094;-68
2021/06/20 06:56:19;;;;;;;13.93;4.93;;;;;;;;;;5093404;28;20099;-70
2021/06/20 06:58:46;;;;;;;18.92;4.45;;;;;;;;;;5092217;28;20529;-68
2021/06/20 07:01:12;;;;;;;13.98;4.95;;;;;;;;;;5092164;28;20048;-68
2021/06/20 07:03:39;;;;;;;13.00;5.13;;;;;;;;;;5095297;28;20581;-68
2021/06/20 07:06:06;;;;;;;14.45;5.25;;;;;;;;;;5107051;28;20479;-70
2021/06/20 07:08:32;;;;;;;11.48;4.35;;;;;;;;;;5113528;28;20047;-68
2021/06/20 07:10:59;;;;;;;15.38;4.47;;;;;;;;;;5113923;28;20067;-68
2021/06/20 07:13:25;;;;;;;15.23;4.30;;;;;;;;;;5113300;27;20083;-69
2021/06/20 07:15:52;;;;;;;13.40;4.57;;;;;;;;;;5113446;28;20091;-68
2021/06/20 07:18:20;;;;;;;13.38;4.78;;;;;;;;;;5113508;28;20112;-68
2021/06/20 07:20:47;;;;;;;16.35;4.85;;;;;;;;;;5110411;28;20085;-68
2021/06/20 07:23:14;;;;;;;14.65;4.47;;;;;;;;;;5092804;28;20091;-68
2021/06/20 07:25:41;;;;;;;13.23;4.10;;;;;;;;;;5092396;28;20086;-67
2021/06/20 07:28:08;;;;;;;16.98;4.72;;;;;;;;;;5092677;28;20083;-70
2021/06/20 07:30:34;;;;;;;14.77;4.75;;;;;;;;;;5091583;28;20051;-67
2021/06/20 07:33:01;;;;;;;12.35;4.35;;;;;;;;;;5092519;28;20052;-68
2021/06/20 07:35:28;;;;;;;16.13;4.65;;;;;;;;;;5091469;28;20101;-68
2021/06/20 07:37:54;;;;;;;11.75;4.57;;;;;;;;;;5092942;28;20484;-69
2021/06/20 07:40:21;;;;;;;10.25;4.20;;;;;;;;;;5092657;28;20044;-71
2021/06/20 07:42:47;;;;;;;15.05;4.95;;;;;;;;;;5092533;28;20099;-70
2021/06/20 07:45:15;;;;;;;13.35;4.68;;;;;;;;;;5092463;28;20083;-70
2021/06/20 07:47:42;;;;;;;11.85;3.83;;;;;;;;;;5092301;28;20127;-71
2021/06/20 07:50:11;;;;;;;6.50;3.08;;;;;;;;;;5092221;28;20483;-70
2021/06/20 07:52:38;;;;;;;11.02;4.43;;;;;;;;;;5103323;28;20048;-70
2021/06/20 07:55:06;;;;;;;11.15;4.35;;;;;;;;;;5089370;28;20080;-70
2021/06/20 07:57:33;;;;;;;12.45;4.32;;;;;;;;;;5101748;28;20048;-70
2021/06/20 08:00:00;;;;;;;11.77;3.75;;;;;;;;;;5112280;28;20134;-70
2021/06/20 08:02:26;;;;;;;11.25;4.50;;;;;;;;;;5102427;28;20094;-68
2021/06/20 08:04:53;;;;;;;12.10;3.75;;;;;;;;;;5100275;28;20501;-68
2021/06/20 08:07:19;;;;;;;13.25;3.65;;;;;;;;;;5094941;28;20479;-68
2021/06/20 08:09:46;;;;;;;15.98;3.97;;;;;;;;;;5090767;28;20075;-68
2021/06/20 08:12:13;;;;;;;18.25;4.32;;;;;;;;;;5091891;28;20153;-69
2021/06/20 08:14:39;;;;;;;11.38;5.00;;;;;;;;;;5091774;28;20054;-69
2021/06/20 08:17:06;;;;;;;12.27;4.53;;;;;;;;;;5105537;28;20131;-69
2021/06/20 08:19:33;;;;;;;13.80;4.22;;;;;;;;;;5110898;28;20044;-69
2021/06/20 08:22:00;;;;;;;14.35;4.00;;;;;;;;;;5111899;28;20091;-69
2021/06/20 08:24:26;;;;;;;10.00;4.10;;;;;;;;;;5112163;28;20093;-69
2021/06/20 08:26:53;;;;;;;11.13;4.07;;;;;;;;;;5111841;28;20134;-69
2021/06/20 08:29:19;;;;;;;8.73;4.20;;;;;;;;;;5093087;28;20083;-69
2021/06/20 08:31:46;;;;;;;12.60;3.92;;;;;;;;;;5091325;28;20087;-68
2021/06/20 08:34:13;;;;;;;11.63;3.40;;;;;;;;;;5091634;28;20048;-69
2021/06/20 08:36:39;;;;;;;11.20;3.83;;;;;;;;;;5100829;28;20569;-69
2021/06/20 08:39:06;;;;;;;14.02;3.70;;;;;;;;;;5111921;28;20083;-67
2021/06/20 08:41:33;;;;;;;9.32;3.28;;;;;;;;;;5111580;28;20087;-68
2021/06/20 08:44:00;;;;;;;9.60;3.35;;;;;;;;;;5111644;28;20047;-68
2021/06/20 08:46:27;;;;;;;6.68;3.13;;;;;;;;;;5109988;28;20082;-69
2021/06/20 08:48:53;;;;;;;10.30;2.85;;;;;;;;;;5111752;28;20043;-69
2021/06/20 08:51:20;;;;;;;12.52;3.15;;;;;;;;;;5110764;28;20056;-68
2021/06/20 08:53:46;;;;;;;12.95;3.78;;;;;;;;;;5111401;28;20071;-69
2021/06/20 08:56:13;;;;;;;10.13;3.40;;;;;;;;;;5110750;28;20078;-69
2021/06/20 08:58:40;;;;;;;12.45;3.70;;;;;;;;;;5098865;28;20079;-68
2021/06/20 09:01:07;;;;;;;11.30;2.72;;;;;;;;;;5091285;28;20080;-68
2021/06/20 09:03:44;;;;;;;8.40;3.22;;;;;;;;;;5091184;28;20091;-69
2021/06/20 09:06:21;;;;;;;10.32;2.83;;;;;;;;;;5091717;28;20071;-67
2021/06/20 09:08:52;;;;;;;9.23;2.92;;;;;;;;;;5091238;28;20097;-67
2021/06/20 09:11:32;;;;;;;9.10;3.65;;;;;;;;;;5107526;28;20043;-69
2021/06/20 09:14:07;;;;;;;9.57;2.90;;;;;;;;;;5111400;28;20051;-69
2021/06/20 09:16:35;;;;;;;8.00;2.80;;;;;;;;;;5111557;28;20078;-69
2021/06/20 09:19:02;;;;;;;8.48;2.95;;;;;;;;;;5111548;28;20047;-69
2021/06/20 09:21:29;;;;;;;12.38;3.95;;;;;;;;;;5113587;28;20093;-68
2021/06/20 09:23:56;;;;;;;8.10;3.08;;;;;;;;;;5105400;28;20087;-68
2021/06/20 09:26:40;;;;;;;11.30;3.30;;;;;;;;;;5115222;28;20577;-68
2021/06/20 09:29:08;;;;;;;7.45;3.75;;;;;;;;;;5113662;28;20082;-68
2021/06/20 09:31:44;;;;;;;7.28;2.75;;;;;;;;;;5113513;28;20090;-69
2021/06/20 09:34:11;;;;;;;7.32;2.72;;;;;;;;;;5072654;28;20072;-68
2021/06/20 09:36:38;;;;;;;9.95;3.13;;;;;;;;;;5072298;28;20135;-67
2021/06/20 09:39:16;;;;;;;10.18;3.00;;;;;;;;;;5072603;28;20076;-68
2021/06/20 09:41:44;;;;;;;9.50;3.15;;;;;;;;;;5072517;28;20076;-69
2021/06/20 09:44:10;;;;;;;4.75;2.85;;;;;;;;;;5098729;27;20379;-68
2021/06/20 09:46:37;;;;;;;8.52;2.88;;;;;;;;;;5113029;27;20082;-69
2021/06/20 09:49:04;;;;;;;9.70;3.13;;;;;;;;;;5112497;28;20063;-68
2021/06/20 09:51:30;;;;;;;6.65;2.95;;;;;;;;;;5111077;28;20143;-68
2021/06/20 09:53:57;;;;;;;9.75;3.03;;;;;;;;;;5113391;28;20468;-68
2021/06/20 09:56:28;;;;;;;8.85;3.40;;;;;;;;;;5108464;28;20075;-69
2021/06/20 09:58:58;;;;;;;7.40;3.45;;;;;;;;;;5092750;28;20598;-69
2021/06/20 10:01:26;;;;;;;10.95;3.70;;;;;;;;;;5092304;28;20139;-69
2021/06/20 10:03:53;;;;;;;9.40;2.88;;;;;;;;;;5091591;28;20051;-68
2021/06/20 10:06:19;;;;;;;7.82;3.67;;;;;;;;;;5092272;28;20071;-68
2021/06/20 10:08:47;;;;;;;8.85;3.55;;;;;;;;;;5097050;28;20142;-68
2021/06/20 10:11:14;;;;;;;13.02;4.03;;;;;;;;;;5110957;28;20079;-68
2021/06/20 10:13:41;;;;;;;9.60;3.40;;;;;;;;;;5112883;28;20097;-69
2021/06/20 10:16:21;;;;;;;12.52;3.55;;;;;;;;;;5112526;28;20502;-68
2021/06/20 10:19:04;;;;;;;10.68;4.43;;;;;;;;;;5078937;28;20113;-67
2021/06/20 10:21:32;;;;;;;10.13;3.60;;;;;;;;;;5100785;28;20075;-69
2021/06/20 10:24:03;;;;;;;7.00;3.17;;;;;;;;;;5091975;28;20126;-69
2021/06/20 10:26:34;;;;;;;12.43;3.50;;;;;;;;;;5092600;28;20509;-68
2021/06/20 10:29:02;;;;;;;10.88;3.85;;;;;;;;;;5092307;28;20422;-68
2021/06/20 10:31:33;;;;;;;11.35;4.15;;;;;;;;;;5093500;28;20074;-67
2021/06/20 10:34:19;;;;;;;15.23;4.43;;;;;;;;;;5092024;28;20071;-69
2021/06/20 10:36:48;;;;;;;8.32;3.30;;;;;;;;;;5101694;28;20047;-69
2021/06/20 10:39:14;;;;;;;9.60;4.07;;;;;;;;;;5113585;28;20105;-68
2021/06/20 10:41:41;;;;;;;11.30;4.38;;;;;;;;;;5112961;28;20079;-67
2021/06/20 10:44:08;;;;;;;13.02;3.63;;;;;;;;;;5112202;28;20047;-69
2021/06/20 10:46:36;;;;;;;12.10;3.58;;;;;;;;;;5108022;28;20463;-69
2021/06/20 10:49:13;;;;;;;13.98;4.13;;;;;;;;;;5092128;28;20087;-69
2021/06/20 10:51:40;;;;;;;12.80;4.38;;;;;;;;;;5089756;28;20131;-68
2021/06/20 10:54:07;;;;;;;11.63;3.40;;;;;;;;;;5090003;28;20486;-70
2021/06/20 10:56:54;;;;;;;15.50;3.83;;;;;;;;;;5090311;28;20117;-68
2021/06/20 10:59:22;;;;;;;10.93;3.63;;;;;;;;;;5102109;28;20185;-68
2021/06/20 11:01:49;;;;;;;12.57;3.80;;;;;;;;;;5095447;28;20082;-68
2021/06/20 11:04:16;;;;;;;11.77;4.38;;;;;;;;;;5094711;28;20052;-69
2021/06/20 11:06:56;;;;;;;10.40;3.00;;;;;;;;;;5107632;28;20104;-69
2021/06/20 11:09:23;;;;;;;14.27;3.03;;;;;;;;;;5097249;28;20131;-68
2021/06/20 11:11:53;;;;;;;11.95;4.22;;;;;;;;;;5093020;28;20044;-67
2021/06/20 11:14:20;;;;;;;8.60;2.90;;;;;;;;;;5099773;28;20090;-68
2021/06/20 11:16:49;;;;;;;15.43;3.17;;;;;;;;;;5092117;28;20055;-68
2021/06/20 11:19:21;;;;;;;13.18;2.90;;;;;;;;;;5090088;28;20131;-69
2021/06/20 11:21:47;;;;;;;13.82;3.50;;;;;;;;;;5089817;28;20330;-69
2021/06/20 11:24:23;;;;;;;13.35;3.28;;;;;;;;;;5090807;28;20067;-68
2021/06/20 11:27:14;;;;;;;7.93;2.92;;;;;;;;;;5089619;28;20079;-69
2021/06/20 11:29:52;;;;;;;15.57;3.58;;;;;;;;;;5099898;28;20075;-69
2021/06/20 11:32:20;;;;;;;11.70;3.28;;;;;;;;;;5095855;28;20072;-70
2021/06/20 11:34:52;;;;;;;9.27;2.67;;;;;;;;;;5108751;28;20086;-69
2021/06/20 11:37:23;;;;;;;;;;;;;;;;;;5094401;28;20071;-69
2021/06/20 11:39:53;;;;;;;12.70;4.93;;;;;;;;;;5095127;28;20371;-69
2021/06/20 11:42:25;;;;;;;7.60;3.17;;;;;;;;;;5097836;28;20072;-68
2021/06/20 11:44:59;;;;;;;11.18;3.20;;;;;;;;;;5111526;28;20082;-69
2021/06/20 11:47:37;;;;;;;9.77;3.75;;;;;;;;;;5066806;28;23677;-69
2021/06/20 11:50:10;;;;;;;11.05;3.03;;;;;;;;;;5092391;28;20044;-68
2021/06/20 11:52:40;;;;;;;7.63;2.88;;;;;;;;;;5031395;28;20214;-66
2021/06/20 11:55:09;;;;;;;10.48;3.38;;;;;;;;;;5024526;28;20084;-67
2021/06/20 11:57:35;;;;;;;9.35;3.05;;;;;;;;;;5083262;28;20074;-67
2021/06/20 12:00:08;;;;;;;9.60;3.00;;;;;;;;;;5071594;28;20110;-67
2021/06/20 12:02:35;;;;;;;12.38;2.90;;;;;;;;;;5071590;28;20088;-67
2021/06/20 12:05:02;;;;;;;11.65;3.30;;;;;;;;;;5087432;28;20491;-66
2021/06/20 12:07:29;;;;;;;16.30;3.40;;;;;;;;;;5082636;28;20052;-67
2021/06/20 12:09:56;;;;;;;12.13;3.70;;;;;;;;;;5071684;28;20083;-67
2021/06/20 12:12:22;;;;;;;15.15;3.72;;;;;;;;;;5070289;28;20041;-66
2021/06/20 12:15:00;;;;;;;8.85;3.00;;;;;;;;;;5079201;28;20135;-67
2021/06/20 12:17:28;;;;;;;11.75;4.07;;;;;;;;;;5071580;28;20426;-67
2021/06/20 12:19:55;;;;;;;9.38;3.20;;;;;;;;;;5088779;28;20044;-66
2021/06/20 12:22:22;;;;;;;11.65;3.60;;;;;;;;;;5079614;28;20432;-66
2021/06/20 12:24:58;;;;;;;9.45;2.72;;;;;;;;;;5085872;28;20086;-66
2021/06/20 12:27:33;;;;;;;12.18;3.78;;;;;;;;;;5052222;28;20439;-67
2021/06/20 12:30:00;;;;;;;;;;;;;;;;;;5051850;28;20555;-68
2021/06/20 12:32:32;;;;;;;13.95;3.22;;;;;;;;;;5049809;28;19925;-66
2021/06/20 12:34:59;;;;;;;10.50;3.67;;;;;;;;;;5056259;28;20411;-66
2021/06/20 12:37:25;;;;;;;14.90;3.63;;;;;;;;;;5070400;28;20079;-66
2021/06/20 12:39:53;;;;;;;16.30;4.50;;;;;;;;;;5070427;28;20092;-68
2021/06/20 12:42:22;;;;;;;10.90;3.30;;;;;;;;;;5067673;28;20460;-68
2021/06/20 12:44:52;;;;;;;14.93;3.58;;;;;;;;;;5070193;28;20087;-67
2021/06/20 12:47:34;;;;;;;19.42;3.70;;;;;;;;;;5066257;28;20140;-67
2021/06/20 12:50:01;;;;;;;14.07;4.35;;;;;;;;;;5072880;28;20052;-69
2021/06/20 12:52:36;;;;;;;14.32;4.30;;;;;;;;;;5070766;28;20491;-67
2021/06/20 12:55:23;;;;;;;16.70;4.38;;;;;;;;;;5070994;28;20542;-67
2021/06/20 12:57:52;;;;;;;14.52;3.42;;;;;;;;;;5074534;28;20060;-66
2021/06/20 13:00:21;;;;;;;21.98;4.03;;;;;;;;;;5075426;28;20052;-67
2021/06/20 13:02:56;;;;;;;19.52;4.35;;;;;;;;;;5078668;28;20051;-66
2021/06/20 13:05:28;;;;;;;17.77;4.47;;;;;;;;;;5065170;28;20079;-69
2021/06/20 13:07:55;;;;;;;23.08;4.40;;;;;;;;;;5074950;28;20079;-67
2021/06/20 13:10:21;;;;;;;16.02;3.97;;;;;;;;;;5075240;28;20095;-66
2021/06/20 13:12:48;;;;;;;19.33;4.72;;;;;;;;;;5078455;28;20085;-66
2021/06/20 13:15:15;;;;;;;16.83;4.40;;;;;;;;;;5086732;28;20045;-68
2021/06/20 13:17:43;;;;;;;19.45;4.55;;;;;;;;;;5078741;28;20478;-68
2021/06/20 13:20:11;;;;;;;18.05;4.88;;;;;;;;;;5073772;28;20506;-66
2021/06/20 13:22:39;;;;;;;15.98;4.18;;;;;;;;;;5073333;28;20118;-66
2021/06/20 13:25:07;;;;;;;17.90;3.83;;;;;;;;;;5074776;28;20091;-66
2021/06/20 13:27:33;;;;;;;19.27;4.97;;;;;;;;;;5074599;28;20142;-67
2021/06/20 13:30:00;;;;;;;19.25;4.93;;;;;;;;;;5074910;28;20078;-66
2021/06/20 13:32:27;;;;;;;17.88;5.18;;;;;;;;;;5074822;28;20234;-69
2021/06/20 13:34:54;;;;;;;21.30;5.05;;;;;;;;;;5074415;28;20078;-66
2021/06/20 13:37:22;;;;;;;23.48;5.80;;;;;;;;;;5078776;28;20075;-68
2021/06/20 13:39:49;;;;;;;21.85;5.20;;;;;;;;;;5073616;28;20056;-69
2021/06/20 13:42:15;;;;;;;26.10;5.88;;;;;;;;;;5070512;28;20483;-70
2021/06/20 13:44:42;;;;;;;22.23;5.63;;;;;;;;;;5072111;28;20048;-68
2021/06/20 13:47:09;;;;;;;21.48;5.30;;;;;;;;;;5073311;28;20076;-69
2021/06/20 13:49:36;;;;;;;22.55;4.20;;;;;;;;;;5070820;28;20106;-69
2021/06/20 13:52:03;;;;;;;17.85;4.68;;;;;;;;;;5073254;28;20079;-69
2021/06/20 13:54:30;;;;;;;23.05;4.95;;;;;;;;;;5073205;28;20088;-69
2021/06/20 13:56:57;;;;;;;23.95;4.50;;;;;;;;;;5073765;28;20092;-69
2021/06/20 13:59:24;;;;;;;18.35;5.03;;;;;;;;;;5073655;28;20131;-69
2021/06/20 14:01:53;;;;;;;26.45;4.70;;;;;;;;;;5073187;28;20127;-69
2021/06/20 14:04:20;;;;;;;22.58;4.57;;;;;;;;;;5073593;28;20628;-69
2021/06/20 14:06:47;;;;;;;22.50;4.18;;;;;;;;;;5072918;28;20103;-69
2021/06/20 14:09:14;;;;;;;26.70;5.72;;;;;;;;;;5072885;28;20132;-69
2021/06/20 14:11:40;;;;;;;21.95;5.07;;;;;;;;;;5072955;28;20084;-69
2021/06/20 14:14:07;;;;;;;22.75;4.22;;;;;;;;;;5073409;28;20083;-69
2021/06/20 14:16:34;;;;;;;19.63;4.68;;;;;;;;;;5073334;28;20044;-69
2021/06/20 14:19:01;;;;;;;23.25;4.88;;;;;;;;;;5073077;28;20122;-69
2021/06/20 14:21:28;;;;;;;20.08;4.97;;;;;;;;;;5072834;28;20052;-69
2021/06/20 14:23:55;;;;;;;17.63;3.63;;;;;;;;;;5072459;28;20044;-69
2021/06/20 14:26:21;;;;;;;20.27;5.28;;;;;;;;;;5072482;28;20072;-68
2021/06/20 14:28:48;;;;;;;25.95;4.53;;;;;;;;;;5070262;28;20052;-68
2021/06/20 14:31:15;;;;;;;17.60;4.75;;;;;;;;;;5072437;28;20076;-68
2021/06/20 14:33:44;;;;;;;16.90;4.13;;;;;;;;;;5072156;28;20721;-68
2021/06/20 14:36:12;;;;;;;15.73;3.85;;;;;;;;;;5072251;28;20525;-68
2021/06/20 14:38:39;;;;;;;20.27;5.10;;;;;;;;;;5071521;28;20048;-69